This is the latest recevied weather packets stored in our database for station/object IW0HP-3. If no packets are shown the sender has not sent any weather packets the latest 10 day(s).
| Time | Temp. | Humidity | Pressure | Rain* | Wind** | Luminosity | Snow |
|---|---|---|---|---|---|---|---|
| 1777567268 | 21.67° C | 51% | 1016.5 hPa | - | - | - | - |
| 1777566064 | 22.22° C | 50% | 1016.4 hPa | - | - | - | - |
| 1777563655 | 22.78° C | 49% | 1016.2 hPa | - | - | - | - |
| 1777562450 | 22.78° C | 49% | 1016.1 hPa | - | - | - | - |
| 1777561246 | 22.22° C | 50% | 1016.3 hPa | - | - | - | - |
| 1777560041 | 22.22° C | 52% | 1016.3 hPa | - | - | - | - |
| 1777558837 | 21.67° C | 54% | 1016.3 hPa | - | - | - | - |
| 1777556428 | 22.22° C | 54% | 1016.3 hPa | - | - | - | - |
| 1777555223 | 21.67° C | 54% | 1016.6 hPa | - | - | - | - |
| 1777554019 | 21.67° C | 55% | 1016.6 hPa | - | - | - | - |
| 1777552814 | 21.67° C | 54% | 1016.5 hPa | - | - | - | - |
| 1777551609 | 22.22° C | 54% | 1016.6 hPa | - | - | - | - |
| 1777549200 | 22.78° C | 46% | 1017.1 hPa | - | - | - | - |
| 1777547996 | 22.22° C | 50% | 1017.1 hPa | - | - | - | - |
| 1777546791 | 21.11° C | 50% | 1017.3 hPa | - | - | - | - |
| 1777545586 | 21.11° C | 52% | 1017.2 hPa | - | - | - | - |
| 1777544382 | 21.11° C | 52% | 1017.4 hPa | - | - | - | - |
| 1777543177 | 21.11° C | 53% | 1017.6 hPa | - | - | - | - |
| 1777541973 | 20.56° C | 55% | 1017.8 hPa | - | - | - | - |
| 1777540768 | 20° C | 57% | 1017.8 hPa | - | - | - | - |
| 1777539564 | 19.44° C | 58% | 1017.8 hPa | - | - | - | - |
| 1777538360 | 18.89° C | 62% | 1017.7 hPa | - | - | - | - |
| 1777537155 | 18.33° C | 63% | 1017.5 hPa | - | - | - | - |
| 1777535951 | 17.78° C | 63% | 1017.2 hPa | - | - | - | - |
| 1777534746 | 17.78° C | 65% | 1017.3 hPa | - | - | - | - |
* Rain since midnight (hover to see other rain measurements)
** Current wind speed in m/s (hover to see current wind gust speed)